sensor_id;sensor_type;location;lat;lon;timestamp;P1;durP1;ratioP1;P2;durP2;ratioP2
65753;SDS011;52488;47.502;18.940;2023-04-01T00:00:50;2.03;;;1.30;;
65753;SDS011;52488;47.502;18.940;2023-04-01T00:01:54;3.67;;;1.40;;
65753;SDS011;52488;47.502;18.940;2023-04-01T00:02:57;1.77;;;0.95;;
65753;SDS011;52488;47.502;18.940;2023-04-01T00:04:00;3.55;;;1.45;;
65753;SDS011;52488;47.502;18.940;2023-04-01T00:05:04;1.67;;;1.08;;
65753;SDS011;52488;47.502;18.940;2023-04-01T00:06:08;1.58;;;1.23;;
65753;SDS011;52488;47.502;18.940;2023-04-01T00:07:13;2.22;;;1.12;;
65753;SDS011;52488;47.502;18.940;2023-04-01T00:08:16;1.30;;;1.10;;
65753;SDS011;52488;47.502;18.940;2023-04-01T00:09:19;3.08;;;1.80;;
65753;SDS011;52488;47.502;18.940;2023-04-01T00:10:22;3.03;;;1.20;;
65753;SDS011;52488;47.502;18.940;2023-04-01T00:11:25;4.82;;;1.55;;
65753;SDS011;52488;47.502;18.940;2023-04-01T00:12:29;2.15;;;1.20;;
65753;SDS011;52488;47.502;18.940;2023-04-01T00:13:32;2.72;;;1.65;;
65753;SDS011;52488;47.502;18.940;2023-04-01T00:14:35;4.10;;;1.42;;
65753;SDS011;52488;47.502;18.940;2023-04-01T00:15:39;1.65;;;1.30;;
65753;SDS011;52488;47.502;18.940;2023-04-01T00:16:42;1.90;;;1.52;;
65753;SDS011;52488;47.502;18.940;2023-04-01T00:17:45;2.08;;;1.52;;
65753;SDS011;52488;47.502;18.940;2023-04-01T00:18:48;2.20;;;1.50;;
65753;SDS011;52488;47.502;18.940;2023-04-01T00:19:54;1.67;;;1.40;;
65753;SDS011;52488;47.502;18.940;2023-04-01T00:20:57;3.92;;;1.37;;
65753;SDS011;52488;47.502;18.940;2023-04-01T00:22:00;3.62;;;1.40;;
65753;SDS011;52488;47.502;18.940;2023-04-01T00:23:03;3.87;;;1.40;;
65753;SDS011;52488;47.502;18.940;2023-04-01T00:24:07;3.62;;;1.52;;
65753;SDS011;52488;47.502;18.940;2023-04-01T00:25:10;2.30;;;1.42;;
65753;SDS011;52488;47.502;18.940;2023-04-01T00:26:13;3.87;;;1.48;;
65753;SDS011;52488;47.502;18.940;2023-04-01T00:27:17;2.25;;;1.27;;
65753;SDS011;52488;47.502;18.940;2023-04-01T00:28:20;1.87;;;1.30;;
65753;SDS011;52488;47.502;18.940;2023-04-01T00:29:23;2.25;;;1.27;;
65753;SDS011;52488;47.502;18.940;2023-04-01T00:30:27;2.67;;;1.30;;
65753;SDS011;52488;47.502;18.940;2023-04-01T00:31:30;5.03;;;1.30;;
65753;SDS011;52488;47.502;18.940;2023-04-01T00:32:33;1.73;;;1.30;;
65753;SDS011;52488;47.502;18.940;2023-04-01T00:33:38;2.22;;;1.33;;
65753;SDS011;52488;47.502;18.940;2023-04-01T00:34:43;2.08;;;1.23;;
65753;SDS011;52488;47.502;18.940;2023-04-01T00:35:47;7.78;;;1.50;;
65753;SDS011;52488;47.502;18.940;2023-04-01T00:36:50;4.93;;;1.60;;
65753;SDS011;52488;47.502;18.940;2023-04-01T00:37:55;2.87;;;1.20;;
65753;SDS011;52488;47.502;18.940;2023-04-01T00:38:58;2.62;;;1.50;;
65753;SDS011;52488;47.502;18.940;2023-04-01T00:40:04;3.17;;;1.50;;
65753;SDS011;52488;47.502;18.940;2023-04-01T00:41:09;1.75;;;1.37;;
65753;SDS011;52488;47.502;18.940;2023-04-01T00:42:17;2.22;;;1.75;;
65753;SDS011;52488;47.502;18.940;2023-04-01T00:43:20;1.73;;;1.40;;
65753;SDS011;52488;47.502;18.940;2023-04-01T00:44:25;2.55;;;1.52;;
65753;SDS011;52488;47.502;18.940;2023-04-01T00:45:34;5.95;;;1.50;;
65753;SDS011;52488;47.502;18.940;2023-04-01T00:46:40;2.55;;;1.48;;
65753;SDS011;52488;47.502;18.940;2023-04-01T00:47:43;3.05;;;1.45;;
65753;SDS011;52488;47.502;18.940;2023-04-01T00:48:48;3.85;;;1.65;;
65753;SDS011;52488;47.502;18.940;2023-04-01T00:49:55;4.55;;;1.60;;
65753;SDS011;52488;47.502;18.940;2023-04-01T00:51:00;2.28;;;1.50;;
65753;SDS011;52488;47.502;18.940;2023-04-01T00:52:08;2.30;;;1.52;;
65753;SDS011;52488;47.502;18.940;2023-04-01T00:53:16;3.22;;;1.40;;
65753;SDS011;52488;47.502;18.940;2023-04-01T00:54:21;2.33;;;1.48;;
65753;SDS011;52488;47.502;18.940;2023-04-01T00:55:27;3.55;;;1.60;;
65753;SDS011;52488;47.502;18.940;2023-04-01T00:57:39;2.60;;;1.50;;
65753;SDS011;52488;47.502;18.940;2023-04-01T00:58:46;3.05;;;1.80;;
65753;SDS011;52488;47.502;18.940;2023-04-01T00:59:54;2.58;;;1.33;;
65753;SDS011;52488;47.502;18.940;2023-04-01T01:00:58;2.67;;;1.67;;
65753;SDS011;52488;47.502;18.940;2023-04-01T01:02:02;2.37;;;1.42;;
65753;SDS011;52488;47.502;18.940;2023-04-01T01:03:08;2.53;;;1.75;;
65753;SDS011;52488;47.502;18.940;2023-04-01T01:04:21;2.42;;;1.60;;
65753;SDS011;52488;47.502;18.940;2023-04-01T01:05:32;1.95;;;1.45;;
65753;SDS011;52488;47.502;18.940;2023-04-01T01:07:03;1.70;;;1.40;;
65753;SDS011;52488;47.502;18.940;2023-04-01T01:09:30;2.60;;;1.65;;
65753;SDS011;52488;47.502;18.940;2023-04-01T01:10:42;5.20;;;1.55;;
65753;SDS011;52488;47.502;18.940;2023-04-01T01:13:22;2.75;;;1.50;;
65753;SDS011;52488;47.502;18.940;2023-04-01T01:14:45;3.17;;;1.55;;
65753;SDS011;52488;47.502;18.940;2023-04-01T01:18:53;2.80;;;1.80;;
65753;SDS011;52488;47.502;18.940;2023-04-01T01:22:21;3.67;;;1.62;;
65753;SDS011;52488;47.502;18.940;2023-04-01T01:24:04;4.47;;;1.60;;
65753;SDS011;52488;47.502;18.940;2023-04-01T01:35:22;1.60;;;1.50;;
65753;SDS011;52488;47.502;18.940;2023-04-01T01:36:33;2.87;;;1.55;;
65753;SDS011;52488;47.502;18.940;2023-04-01T01:37:39;3.35;;;1.90;;
65753;SDS011;52488;47.502;18.940;2023-04-01T01:38:45;2.58;;;1.60;;
65753;SDS011;52488;47.502;18.940;2023-04-01T01:39:55;2.17;;;1.45;;
65753;SDS011;52488;47.502;18.940;2023-04-01T01:41:01;2.78;;;1.50;;
65753;SDS011;52488;47.502;18.940;2023-04-01T01:42:07;4.05;;;1.65;;
65753;SDS011;52488;47.502;18.940;2023-04-01T01:43:15;3.15;;;1.80;;
65753;SDS011;52488;47.502;18.940;2023-04-01T01:44:23;2.40;;;1.90;;
65753;SDS011;52488;47.502;18.940;2023-04-01T01:45:28;3.83;;;1.70;;
65753;SDS011;52488;47.502;18.940;2023-04-01T01:46:35;2.78;;;1.60;;
65753;SDS011;52488;47.502;18.940;2023-04-01T01:47:41;2.47;;;1.67;;
65753;SDS011;52488;47.502;18.940;2023-04-01T01:48:45;2.67;;;1.50;;
65753;SDS011;52488;47.502;18.940;2023-04-01T01:49:51;3.78;;;1.75;;
65753;SDS011;52488;47.502;18.940;2023-04-01T01:50:56;3.17;;;1.55;;
65753;SDS011;52488;47.502;18.940;2023-04-01T01:52:01;2.70;;;1.40;;
65753;SDS011;52488;47.502;18.940;2023-04-01T01:53:05;1.92;;;1.73;;
65753;SDS011;52488;47.502;18.940;2023-04-01T01:54:13;4.18;;;1.62;;
65753;SDS011;52488;47.502;18.940;2023-04-01T01:55:23;3.08;;;1.90;;
65753;SDS011;52488;47.502;18.940;2023-04-01T01:56:29;2.90;;;1.55;;
65753;SDS011;52488;47.502;18.940;2023-04-01T01:57:36;3.12;;;1.70;;
65753;SDS011;52488;47.502;18.940;2023-04-01T01:58:45;4.25;;;1.75;;
65753;SDS011;52488;47.502;18.940;2023-04-01T01:59:54;3.62;;;1.60;;
65753;SDS011;52488;47.502;18.940;2023-04-01T02:01:05;2.28;;;1.62;;
65753;SDS011;52488;47.502;18.940;2023-04-01T02:02:11;4.12;;;1.77;;
65753;SDS011;52488;47.502;18.940;2023-04-01T02:03:17;3.47;;;1.52;;
65753;SDS011;52488;47.502;18.940;2023-04-01T02:04:23;5.05;;;1.67;;
65753;SDS011;52488;47.502;18.940;2023-04-01T02:05:27;2.62;;;1.73;;
65753;SDS011;52488;47.502;18.940;2023-04-01T02:06:34;3.15;;;1.50;;
65753;SDS011;52488;47.502;18.940;2023-04-01T02:07:42;5.97;;;2.10;;
65753;SDS011;52488;47.502;18.940;2023-04-01T02:08:50;2.97;;;1.48;;
65753;SDS011;52488;47.502;18.940;2023-04-01T02:09:57;3.45;;;1.80;;
65753;SDS011;52488;47.502;18.940;2023-04-01T02:11:01;2.72;;;1.87;;
65753;SDS011;52488;47.502;18.940;2023-04-01T02:12:09;3.17;;;1.83;;
65753;SDS011;52488;47.502;18.940;2023-04-01T02:13:24;4.50;;;2.45;;
65753;SDS011;52488;47.502;18.940;2023-04-01T02:15:45;4.35;;;1.80;;
65753;SDS011;52488;47.502;18.940;2023-04-01T02:18:00;2.47;;;1.60;;
65753;SDS011;52488;47.502;18.940;2023-04-01T02:19:05;2.28;;;1.50;;
65753;SDS011;52488;47.502;18.940;2023-04-01T02:21:19;3.40;;;1.77;;
65753;SDS011;52488;47.502;18.940;2023-04-01T02:22:34;3.45;;;1.75;;
65753;SDS011;52488;47.502;18.940;2023-04-01T02:23:41;5.37;;;1.75;;
65753;SDS011;52488;47.502;18.940;2023-04-01T02:24:45;4.07;;;1.73;;
65753;SDS011;52488;47.502;18.940;2023-04-01T02:25:48;5.45;;;1.70;;
65753;SDS011;52488;47.502;18.940;2023-04-01T02:26:51;2.45;;;1.42;;
65753;SDS011;52488;47.502;18.940;2023-04-01T02:27:55;4.75;;;1.60;;
65753;SDS011;52488;47.502;18.940;2023-04-01T02:29:01;1.55;;;1.40;;
65753;SDS011;52488;47.502;18.940;2023-04-01T02:30:08;2.75;;;1.30;;
65753;SDS011;52488;47.502;18.940;2023-04-01T02:31:12;2.90;;;1.35;;
65753;SDS011;52488;47.502;18.940;2023-04-01T02:32:17;3.22;;;1.52;;
65753;SDS011;52488;47.502;18.940;2023-04-01T02:33:22;1.83;;;1.30;;
65753;SDS011;52488;47.502;18.940;2023-04-01T02:34:26;1.62;;;1.23;;
65753;SDS011;52488;47.502;18.940;2023-04-01T02:35:29;1.77;;;1.48;;
65753;SDS011;52488;47.502;18.940;2023-04-01T02:36:34;2.17;;;1.33;;
65753;SDS011;52488;47.502;18.940;2023-04-01T02:37:38;1.58;;;1.27;;
65753;SDS011;52488;47.502;18.940;2023-04-01T02:38:45;1.52;;;1.27;;
65753;SDS011;52488;47.502;18.940;2023-04-01T02:39:50;1.77;;;1.42;;
65753;SDS011;52488;47.502;18.940;2023-04-01T02:40:57;2.90;;;1.42;;
65753;SDS011;52488;47.502;18.940;2023-04-01T02:42:03;4.32;;;1.48;;
65753;SDS011;52488;47.502;18.940;2023-04-01T02:43:06;1.95;;;1.27;;
65753;SDS011;52488;47.502;18.940;2023-04-01T02:44:09;5.07;;;1.60;;
65753;SDS011;52488;47.502;18.940;2023-04-01T02:45:13;2.53;;;1.33;;
65753;SDS011;52488;47.502;18.940;2023-04-01T02:46:17;2.30;;;1.50;;
65753;SDS011;52488;47.502;18.940;2023-04-01T02:47:20;1.77;;;1.30;;
65753;SDS011;52488;47.502;18.940;2023-04-01T02:48:23;2.62;;;1.40;;
65753;SDS011;52488;47.502;18.940;2023-04-01T02:49:26;2.20;;;1.40;;
65753;SDS011;52488;47.502;18.940;2023-04-01T02:50:30;1.48;;;1.30;;
65753;SDS011;52488;47.502;18.940;2023-04-01T02:51:33;1.40;;;1.30;;
65753;SDS011;52488;47.502;18.940;2023-04-01T02:52:37;2.60;;;1.42;;
65753;SDS011;52488;47.502;18.940;2023-04-01T02:53:40;1.55;;;1.30;;
65753;SDS011;52488;47.502;18.940;2023-04-01T02:54:43;2.97;;;1.33;;
65753;SDS011;52488;47.502;18.940;2023-04-01T02:55:46;2.10;;;1.20;;
65753;SDS011;52488;47.502;18.940;2023-04-01T02:56:49;3.28;;;1.42;;
65753;SDS011;52488;47.502;18.940;2023-04-01T02:57:51;1.55;;;1.20;;
65753;SDS011;52488;47.502;18.940;2023-04-01T02:58:54;4.70;;;1.20;;
65753;SDS011;52488;47.502;18.940;2023-04-01T02:59:58;3.00;;;1.30;;
65753;SDS011;52488;47.502;18.940;2023-04-01T03:01:01;3.17;;;1.27;;
65753;SDS011;52488;47.502;18.940;2023-04-01T03:02:04;1.60;;;1.12;;
65753;SDS011;52488;47.502;18.940;2023-04-01T03:03:07;2.22;;;1.10;;
65753;SDS011;52488;47.502;18.940;2023-04-01T03:04:11;3.53;;;1.50;;
65753;SDS011;52488;47.502;18.940;2023-04-01T03:05:14;1.92;;;1.10;;
65753;SDS011;52488;47.502;18.940;2023-04-01T03:06:17;3.17;;;1.30;;
65753;SDS011;52488;47.502;18.940;2023-04-01T03:07:21;3.75;;;1.33;;
65753;SDS011;52488;47.502;18.940;2023-04-01T03:08:24;1.40;;;1.25;;
65753;SDS011;52488;47.502;18.940;2023-04-01T03:09:27;1.60;;;1.20;;
65753;SDS011;52488;47.502;18.940;2023-04-01T03:10:31;3.72;;;1.10;;
65753;SDS011;52488;47.502;18.940;2023-04-01T03:11:34;3.65;;;1.27;;
65753;SDS011;52488;47.502;18.940;2023-04-01T03:12:37;1.98;;;1.00;;
65753;SDS011;52488;47.502;18.940;2023-04-01T03:13:40;2.08;;;0.98;;
65753;SDS011;52488;47.502;18.940;2023-04-01T03:14:43;1.48;;;1.08;;
65753;SDS011;52488;47.502;18.940;2023-04-01T03:15:46;2.15;;;1.23;;
65753;SDS011;52488;47.502;18.940;2023-04-01T03:16:49;2.55;;;1.10;;
65753;SDS011;52488;47.502;18.940;2023-04-01T03:17:52;1.08;;;0.98;;
65753;SDS011;52488;47.502;18.940;2023-04-01T03:18:55;3.37;;;1.05;;
65753;SDS011;52488;47.502;18.940;2023-04-01T03:20:01;1.42;;;0.98;;
65753;SDS011;52488;47.502;18.940;2023-04-01T03:21:17;0.98;;;0.93;;
65753;SDS011;52488;47.502;18.940;2023-04-01T03:22:22;1.73;;;1.20;;
65753;SDS011;52488;47.502;18.940;2023-04-01T03:23:25;2.10;;;1.20;;
65753;SDS011;52488;47.502;18.940;2023-04-01T03:24:28;1.15;;;1.05;;
65753;SDS011;52488;47.502;18.940;2023-04-01T03:25:31;1.15;;;0.98;;
65753;SDS011;52488;47.502;18.940;2023-04-01T03:26:34;3.35;;;1.17;;
65753;SDS011;52488;47.502;18.940;2023-04-01T03:27:37;1.83;;;0.98;;
65753;SDS011;52488;47.502;18.940;2023-04-01T03:28:40;2.20;;;0.90;;
65753;SDS011;52488;47.502;18.940;2023-04-01T03:29:43;3.50;;;1.10;;
65753;SDS011;52488;47.502;18.940;2023-04-01T03:30:47;1.25;;;0.98;;
65753;SDS011;52488;47.502;18.940;2023-04-01T03:31:50;1.58;;;1.00;;
65753;SDS011;52488;47.502;18.940;2023-04-01T03:32:53;1.67;;;0.90;;
65753;SDS011;52488;47.502;18.940;2023-04-01T03:33:56;2.40;;;1.15;;
65753;SDS011;52488;47.502;18.940;2023-04-01T03:34:59;0.85;;;0.82;;
65753;SDS011;52488;47.502;18.940;2023-04-01T03:36:02;1.40;;;0.88;;
65753;SDS011;52488;47.502;18.940;2023-04-01T03:37:09;2.85;;;1.00;;
65753;SDS011;52488;47.502;18.940;2023-04-01T03:38:12;1.42;;;0.77;;
65753;SDS011;52488;47.502;18.940;2023-04-01T03:39:15;1.62;;;1.35;;
65753;SDS011;52488;47.502;18.940;2023-04-01T03:40:21;1.25;;;1.02;;
65753;SDS011;52488;47.502;18.940;2023-04-01T03:41:24;2.45;;;1.00;;
65753;SDS011;52488;47.502;18.940;2023-04-01T03:42:27;3.35;;;1.05;;
65753;SDS011;52488;47.502;18.940;2023-04-01T03:43:33;2.80;;;1.00;;
65753;SDS011;52488;47.502;18.940;2023-04-01T03:44:36;0.95;;;0.88;;
65753;SDS011;52488;47.502;18.940;2023-04-01T03:45:49;1.23;;;1.00;;
65753;SDS011;52488;47.502;18.940;2023-04-01T03:46:53;1.90;;;0.85;;
65753;SDS011;52488;47.502;18.940;2023-04-01T03:47:56;1.15;;;1.05;;
65753;SDS011;52488;47.502;18.940;2023-04-01T03:48:59;1.80;;;1.20;;
65753;SDS011;52488;47.502;18.940;2023-04-01T03:50:03;1.48;;;0.70;;
65753;SDS011;52488;47.502;18.940;2023-04-01T03:51:07;1.42;;;1.00;;
65753;SDS011;52488;47.502;18.940;2023-04-01T03:52:10;1.37;;;0.93;;
65753;SDS011;52488;47.502;18.940;2023-04-01T03:53:14;0.98;;;0.80;;
65753;SDS011;52488;47.502;18.940;2023-04-01T03:54:17;1.23;;;0.82;;
65753;SDS011;52488;47.502;18.940;2023-04-01T03:55:22;6.05;;;1.37;;
65753;SDS011;52488;47.502;18.940;2023-04-01T03:56:25;1.58;;;0.90;;
65753;SDS011;52488;47.502;18.940;2023-04-01T03:57:30;3.53;;;1.10;;
65753;SDS011;52488;47.502;18.940;2023-04-01T03:58:34;1.73;;;0.90;;
65753;SDS011;52488;47.502;18.940;2023-04-01T03:59:38;2.35;;;0.88;;
65753;SDS011;52488;47.502;18.940;2023-04-01T04:00:40;1.58;;;0.90;;
65753;SDS011;52488;47.502;18.940;2023-04-01T04:01:45;2.28;;;1.02;;
65753;SDS011;52488;47.502;18.940;2023-04-01T04:02:50;0.90;;;0.88;;
65753;SDS011;52488;47.502;18.940;2023-04-01T04:03:53;1.20;;;1.10;;
65753;SDS011;52488;47.502;18.940;2023-04-01T04:04:56;1.42;;;0.88;;
65753;SDS011;52488;47.502;18.940;2023-04-01T04:06:02;1.10;;;0.80;;
65753;SDS011;52488;47.502;18.940;2023-04-01T04:07:05;1.08;;;0.80;;
65753;SDS011;52488;47.502;18.940;2023-04-01T04:08:08;1.92;;;0.80;;
65753;SDS011;52488;47.502;18.940;2023-04-01T04:09:11;1.48;;;0.93;;
65753;SDS011;52488;47.502;18.940;2023-04-01T04:10:14;1.37;;;0.90;;
65753;SDS011;52488;47.502;18.940;2023-04-01T04:11:18;1.23;;;1.00;;
65753;SDS011;52488;47.502;18.940;2023-04-01T04:12:22;2.15;;;1.05;;
65753;SDS011;52488;47.502;18.940;2023-04-01T04:13:25;1.17;;;1.05;;
65753;SDS011;52488;47.502;18.940;2023-04-01T04:14:28;0.80;;;0.80;;
65753;SDS011;52488;47.502;18.940;2023-04-01T04:15:31;2.78;;;1.10;;
65753;SDS011;52488;47.502;18.940;2023-04-01T04:16:34;1.73;;;0.95;;
65753;SDS011;52488;47.502;18.940;2023-04-01T04:17:38;1.48;;;1.00;;
65753;SDS011;52488;47.502;18.940;2023-04-01T04:18:42;1.85;;;1.00;;
65753;SDS011;52488;47.502;18.940;2023-04-01T04:19:45;1.10;;;0.90;;
65753;SDS011;52488;47.502;18.940;2023-04-01T04:20:48;2.28;;;1.35;;
65753;SDS011;52488;47.502;18.940;2023-04-01T04:21:53;1.87;;;0.85;;
65753;SDS011;52488;47.502;18.940;2023-04-01T04:22:56;1.12;;;0.93;;
65753;SDS011;52488;47.502;18.940;2023-04-01T04:24:00;3.28;;;1.10;;
65753;SDS011;52488;47.502;18.940;2023-04-01T04:25:04;1.12;;;0.98;;
65753;SDS011;52488;47.502;18.940;2023-04-01T04:26:08;1.83;;;1.10;;
65753;SDS011;52488;47.502;18.940;2023-04-01T04:27:13;1.95;;;0.85;;
65753;SDS011;52488;47.502;18.940;2023-04-01T04:28:17;1.12;;;0.90;;
65753;SDS011;52488;47.502;18.940;2023-04-01T04:29:20;1.55;;;1.23;;
65753;SDS011;52488;47.502;18.940;2023-04-01T04:30:25;1.42;;;1.08;;
65753;SDS011;52488;47.502;18.940;2023-04-01T04:31:28;1.55;;;0.98;;
65753;SDS011;52488;47.502;18.940;2023-04-01T04:32:31;1.00;;;0.90;;
65753;SDS011;52488;47.502;18.940;2023-04-01T04:33:35;3.75;;;1.37;;
65753;SDS011;52488;47.502;18.940;2023-04-01T04:34:38;1.15;;;1.00;;
65753;SDS011;52488;47.502;18.940;2023-04-01T04:35:41;1.95;;;1.35;;
65753;SDS011;52488;47.502;18.940;2023-04-01T04:36:44;1.35;;;0.98;;
65753;SDS011;52488;47.502;18.940;2023-04-01T04:37:47;2.03;;;0.95;;
65753;SDS011;52488;47.502;18.940;2023-04-01T04:38:50;0.82;;;0.82;;
65753;SDS011;52488;47.502;18.940;2023-04-01T04:39:53;2.35;;;1.08;;
65753;SDS011;52488;47.502;18.940;2023-04-01T04:40:56;1.87;;;1.33;;
65753;SDS011;52488;47.502;18.940;2023-04-01T04:41:59;1.67;;;1.17;;
65753;SDS011;52488;47.502;18.940;2023-04-01T04:43:02;1.25;;;1.12;;
65753;SDS011;52488;47.502;18.940;2023-04-01T04:44:05;2.05;;;0.95;;
65753;SDS011;52488;47.502;18.940;2023-04-01T04:45:09;2.47;;;1.15;;
65753;SDS011;52488;47.502;18.940;2023-04-01T04:46:12;1.90;;;1.10;;
65753;SDS011;52488;47.502;18.940;2023-04-01T04:47:15;2.90;;;1.25;;
65753;SDS011;52488;47.502;18.940;2023-04-01T04:48:18;2.30;;;1.00;;
65753;SDS011;52488;47.502;18.940;2023-04-01T04:49:22;1.73;;;0.95;;
65753;SDS011;52488;47.502;18.940;2023-04-01T04:50:25;2.17;;;1.33;;
65753;SDS011;52488;47.502;18.940;2023-04-01T04:51:28;2.22;;;1.08;;
65753;SDS011;52488;47.502;18.940;2023-04-01T04:52:32;1.33;;;0.93;;
65753;SDS011;52488;47.502;18.940;2023-04-01T04:53:35;1.35;;;1.25;;
65753;SDS011;52488;47.502;18.940;2023-04-01T04:54:38;2.22;;;1.40;;
65753;SDS011;52488;47.502;18.940;2023-04-01T04:55:45;1.77;;;1.00;;
65753;SDS011;52488;47.502;18.940;2023-04-01T04:56:51;2.75;;;1.25;;
65753;SDS011;52488;47.502;18.940;2023-04-01T04:57:55;1.15;;;0.88;;
65753;SDS011;52488;47.502;18.940;2023-04-01T04:58:58;1.55;;;0.95;;
65753;SDS011;52488;47.502;18.940;2023-04-01T05:00:02;1.98;;;0.95;;
65753;SDS011;52488;47.502;18.940;2023-04-01T05:01:09;0.98;;;0.73;;
65753;SDS011;52488;47.502;18.940;2023-04-01T05:02:13;2.33;;;0.90;;
65753;SDS011;52488;47.502;18.940;2023-04-01T05:03:17;2.10;;;1.30;;
65753;SDS011;52488;47.502;18.940;2023-04-01T05:04:20;2.08;;;1.05;;
65753;SDS011;52488;47.502;18.940;2023-04-01T05:05:23;3.90;;;1.02;;
65753;SDS011;52488;47.502;18.940;2023-04-01T05:06:26;1.73;;;1.20;;
65753;SDS011;52488;47.502;18.940;2023-04-01T05:07:32;1.48;;;1.05;;
65753;SDS011;52488;47.502;18.940;2023-04-01T05:08:36;1.77;;;1.17;;
65753;SDS011;52488;47.502;18.940;2023-04-01T05:09:41;2.12;;;1.27;;
65753;SDS011;52488;47.502;18.940;2023-04-01T05:10:45;1.87;;;1.30;;
65753;SDS011;52488;47.502;18.940;2023-04-01T05:11:48;2.45;;;1.40;;
65753;SDS011;52488;47.502;18.940;2023-04-01T05:12:51;1.83;;;1.23;;
65753;SDS011;52488;47.502;18.940;2023-04-01T05:13:55;2.83;;;1.50;;
65753;SDS011;52488;47.502;18.940;2023-04-01T05:14:58;3.03;;;1.45;;
65753;SDS011;52488;47.502;18.940;2023-04-01T05:16:01;4.05;;;1.30;;
65753;SDS011;52488;47.502;18.940;2023-04-01T05:17:05;2.33;;;1.12;;
65753;SDS011;52488;47.502;18.940;2023-04-01T05:18:12;1.67;;;1.33;;
65753;SDS011;52488;47.502;18.940;2023-04-01T05:19:15;2.05;;;1.10;;
65753;SDS011;52488;47.502;18.940;2023-04-01T05:20:18;1.75;;;1.27;;
65753;SDS011;52488;47.502;18.940;2023-04-01T05:21:21;1.42;;;1.00;;
65753;SDS011;52488;47.502;18.940;2023-04-01T05:22:24;1.77;;;1.20;;
65753;SDS011;52488;47.502;18.940;2023-04-01T05:23:28;5.47;;;1.55;;
65753;SDS011;52488;47.502;18.940;2023-04-01T05:24:33;2.47;;;1.40;;
65753;SDS011;52488;47.502;18.940;2023-04-01T05:25:37;2.10;;;1.27;;
65753;SDS011;52488;47.502;18.940;2023-04-01T05:26:40;1.55;;;1.10;;
65753;SDS011;52488;47.502;18.940;2023-04-01T05:27:44;3.62;;;1.10;;
65753;SDS011;52488;47.502;18.940;2023-04-01T05:28:47;1.60;;;1.10;;
65753;SDS011;52488;47.502;18.940;2023-04-01T05:29:50;3.53;;;1.40;;
65753;SDS011;52488;47.502;18.940;2023-04-01T05:30:53;2.87;;;1.37;;
65753;SDS011;52488;47.502;18.940;2023-04-01T05:31:57;2.22;;;1.30;;
65753;SDS011;52488;47.502;18.940;2023-04-01T05:33:00;3.05;;;1.23;;
65753;SDS011;52488;47.502;18.940;2023-04-01T05:34:03;2.15;;;1.30;;
65753;SDS011;52488;47.502;18.940;2023-04-01T05:35:06;1.60;;;1.25;;
65753;SDS011;52488;47.502;18.940;2023-04-01T05:36:10;3.75;;;1.30;;
65753;SDS011;52488;47.502;18.940;2023-04-01T05:37:18;3.53;;;1.15;;
65753;SDS011;52488;47.502;18.940;2023-04-01T05:38:22;3.87;;;1.40;;
65753;SDS011;52488;47.502;18.940;2023-04-01T05:39:25;4.30;;;1.30;;
65753;SDS011;52488;47.502;18.940;2023-04-01T05:40:28;3.72;;;1.62;;
65753;SDS011;52488;47.502;18.940;2023-04-01T05:41:34;4.03;;;1.42;;
65753;SDS011;52488;47.502;18.940;2023-04-01T05:42:40;2.83;;;1.42;;
65753;SDS011;52488;47.502;18.940;2023-04-01T05:43:43;3.72;;;1.45;;
65753;SDS011;52488;47.502;18.940;2023-04-01T05:44:46;3.75;;;1.50;;
65753;SDS011;52488;47.502;18.940;2023-04-01T05:45:49;5.82;;;1.70;;
65753;SDS011;52488;47.502;18.940;2023-04-01T05:46:52;1.58;;;1.33;;
65753;SDS011;52488;47.502;18.940;2023-04-01T05:47:55;3.47;;;1.60;;
65753;SDS011;52488;47.502;18.940;2023-04-01T05:48:58;4.28;;;1.33;;
65753;SDS011;52488;47.502;18.940;2023-04-01T05:50:01;2.33;;;1.17;;
65753;SDS011;52488;47.502;18.940;2023-04-01T05:51:04;3.00;;;1.37;;
65753;SDS011;52488;47.502;18.940;2023-04-01T05:52:07;3.70;;;1.12;;
65753;SDS011;52488;47.502;18.940;2023-04-01T05:53:10;3.00;;;1.08;;
65753;SDS011;52488;47.502;18.940;2023-04-01T05:54:14;3.10;;;1.08;;
65753;SDS011;52488;47.502;18.940;2023-04-01T05:55:17;1.80;;;1.20;;
65753;SDS011;52488;47.502;18.940;2023-04-01T05:56:20;2.92;;;1.55;;
65753;SDS011;52488;47.502;18.940;2023-04-01T05:57:23;2.80;;;1.65;;
65753;SDS011;52488;47.502;18.940;2023-04-01T05:58:26;2.65;;;1.30;;
65753;SDS011;52488;47.502;18.940;2023-04-01T05:59:29;3.37;;;1.17;;
65753;SDS011;52488;47.502;18.940;2023-04-01T06:00:34;1.95;;;1.45;;
65753;SDS011;52488;47.502;18.940;2023-04-01T06:01:37;2.53;;;1.23;;
65753;SDS011;52488;47.502;18.940;2023-04-01T06:02:41;2.50;;;1.30;;
65753;SDS011;52488;47.502;18.940;2023-04-01T06:03:45;5.00;;;1.30;;
65753;SDS011;52488;47.502;18.940;2023-04-01T06:04:48;3.55;;;1.40;;
65753;SDS011;52488;47.502;18.940;2023-04-01T06:05:52;2.58;;;1.23;;
65753;SDS011;52488;47.502;18.940;2023-04-01T06:06:55;1.70;;;1.15;;
65753;SDS011;52488;47.502;18.940;2023-04-01T06:07:59;2.08;;;1.12;;
65753;SDS011;52488;47.502;18.940;2023-04-01T06:09:12;3.90;;;1.20;;
65753;SDS011;52488;47.502;18.940;2023-04-01T06:10:19;3.20;;;1.40;;
65753;SDS011;52488;47.502;18.940;2023-04-01T06:12:47;4.25;;;1.50;;
65753;SDS011;52488;47.502;18.940;2023-04-01T06:15:25;2.87;;;1.27;;
65753;SDS011;52488;47.502;18.940;2023-04-01T06:30:43;2.67;;;1.27;;
65753;SDS011;52488;47.502;18.940;2023-04-01T06:33:54;3.83;;;1.30;;
65753;SDS011;52488;47.502;18.940;2023-04-01T06:35:11;3.97;;;1.23;;
65753;SDS011;52488;47.502;18.940;2023-04-01T06:39:19;2.40;;;1.10;;
65753;SDS011;52488;47.502;18.940;2023-04-01T06:46:47;6.18;;;0.90;;
65753;SDS011;52488;47.502;18.940;2023-04-01T06:48:21;1.75;;;1.10;;
65753;SDS011;52488;47.502;18.940;2023-04-01T06:49:32;3.60;;;0.70;;
65753;SDS011;52488;47.502;18.940;2023-04-01T06:53:54;1.90;;;1.00;;
65753;SDS011;52488;47.502;18.940;2023-04-01T06:56:41;1.15;;;0.77;;
65753;SDS011;52488;47.502;18.940;2023-04-01T06:57:49;3.95;;;0.98;;
65753;SDS011;52488;47.502;18.940;2023-04-01T06:59:00;1.33;;;1.02;;
65753;SDS011;52488;47.502;18.940;2023-04-01T07:00:13;2.08;;;0.90;;
65753;SDS011;52488;47.502;18.940;2023-04-01T07:01:22;2.12;;;1.00;;
65753;SDS011;52488;47.502;18.940;2023-04-01T07:02:50;1.67;;;1.00;;
65753;SDS011;52488;47.502;18.940;2023-04-01T07:04:11;4.03;;;1.10;;
65753;SDS011;52488;47.502;18.940;2023-04-01T07:05:20;2.00;;;0.80;;
65753;SDS011;52488;47.502;18.940;2023-04-01T07:06:30;1.90;;;0.70;;
65753;SDS011;52488;47.502;18.940;2023-04-01T07:07:38;3.03;;;0.85;;
65753;SDS011;52488;47.502;18.940;2023-04-01T07:08:55;1.52;;;1.05;;
65753;SDS011;52488;47.502;18.940;2023-04-01T07:11:23;2.05;;;0.90;;
65753;SDS011;52488;47.502;18.940;2023-04-01T07:13:41;1.70;;;0.65;;
65753;SDS011;52488;47.502;18.940;2023-04-01T07:14:54;1.55;;;0.75;;
65753;SDS011;52488;47.502;18.940;2023-04-01T07:17:30;1.87;;;0.60;;
65753;SDS011;52488;47.502;18.940;2023-04-01T07:18:52;1.95;;;0.90;;
65753;SDS011;52488;47.502;18.940;2023-04-01T07:20:03;3.53;;;0.93;;
65753;SDS011;52488;47.502;18.940;2023-04-01T07:21:20;2.42;;;1.08;;
65753;SDS011;52488;47.502;18.940;2023-04-01T07:23:42;2.67;;;0.98;;
65753;SDS011;52488;47.502;18.940;2023-04-01T07:24:48;7.28;;;1.50;;
65753;SDS011;52488;47.502;18.940;2023-04-01T07:25:53;2.12;;;0.90;;
65753;SDS011;52488;47.502;18.940;2023-04-01T07:27:01;1.77;;;1.00;;
65753;SDS011;52488;47.502;18.940;2023-04-01T07:28:05;5.95;;;1.23;;
65753;SDS011;52488;47.502;18.940;2023-04-01T07:29:14;1.65;;;1.00;;